Time;durP1;ratioP1;P1;durP2;ratioP2;P2;SDS_P1;SDS_P2;PMS_P1;PMS_P2;Temp;Humidity;BMP_temperature;BMP_pressure;BME280_temperature;BME280_humidity;BME280_pressure;Samples;Min_cycle;Max_cycle;Signal;HPM_P1;HPM_P2
2022/05/25 00:01:37;;;;;;;2.37;1.27;;;13.10;99.90;;;;;;20743534;28;20504;-75
2022/05/25 00:11:38;;;;;;;6.55;1.23;;;13.10;99.90;;;;;;20744424;28;20172;-74
2022/05/25 00:21:39;;;;;;;1.77;1.20;;;13.20;99.90;;;;;;20757367;28;20504;-74
2022/05/25 00:31:40;;;;;;;3.40;0.97;;;13.40;99.90;;;;;;20759018;28;20477;-75
2022/05/25 00:41:41;;;;;;;1.20;1.07;;;13.50;99.90;;;;;;20758157;28;20022;-74
2022/05/25 00:51:46;;;;;;;1.20;1.10;;;13.30;99.90;;;;;;20757382;28;20032;-74
2022/05/25 01:01:48;;;;;;;2.17;1.05;;;13.10;99.90;;;;;;20756692;28;20054;-75
2022/05/25 01:12:17;;;;;;;5.28;1.65;;;13.00;99.90;;;;;;20756472;28;20034;-75
2022/05/25 01:22:27;;;;;;;2.05;1.45;;;12.90;99.90;;;;;;20758484;28;20054;-75
2022/05/25 01:32:42;;;;;;;3.75;1.30;;;12.80;99.90;;;;;;20754959;28;20187;-74
2022/05/25 01:42:58;;;;;;;1.52;1.23;;;12.70;99.90;;;;;;20753572;28;20041;-75
2022/05/25 01:53:02;;;;;;;3.13;1.00;;;12.70;99.90;;;;;;20752686;28;20034;-75
2022/05/25 02:13:47;;;;;;;6.72;1.20;;;12.80;99.90;;;;;;20752001;28;20038;-74
2022/05/25 02:23:57;;;;;;;3.08;1.23;;;12.60;99.90;;;;;;20779931;23;20397;-76
2022/05/25 02:34:02;;;;;;;5.82;1.52;;;12.60;99.90;;;;;;20815092;28;20545;-77
2022/05/25 02:44:03;;;;;;;2.42;1.25;;;12.70;99.90;;;;;;20827183;28;20480;-78
2022/05/25 02:54:05;;;;;;;;;;;12.70;99.90;;;;;;20835096;28;20428;-77
2022/05/25 03:04:05;;;;;;;2.58;1.30;;;12.50;99.90;;;;;;20840655;28;20015;-77
2022/05/25 03:14:06;;;;;;;7.77;1.40;;;12.20;99.90;;;;;;20822202;28;20034;-76
2022/05/25 03:24:07;;;;;;;5.53;1.70;;;12.30;99.90;;;;;;20829966;28;20038;-77
2022/05/25 03:34:08;;;;;;;4.60;1.20;;;12.40;99.90;;;;;;20812840;28;20115;-78
2022/05/25 03:44:12;;;;;;;4.10;1.67;;;12.40;99.90;;;;;;20835312;28;20035;-78
2022/05/25 03:54:13;;;;;;;6.93;1.80;;;12.60;99.90;;;;;;20769078;28;20542;-78
2022/05/25 04:04:14;;;;;;;3.70;1.40;;;12.60;99.90;;;;;;20794406;28;20536;-79
2022/05/25 04:14:15;;;;;;;8.30;2.10;;;12.90;99.90;;;;;;20827624;28;20037;-78
2022/05/25 04:24:16;;;;;;;;;;;12.90;99.90;;;;;;20827225;28;20172;-79
2022/05/25 04:34:17;;;;;;;2.17;1.17;;;13.00;99.90;;;;;;20828869;28;19960;-77
2022/05/25 04:44:18;;;;;;;2.47;1.50;;;13.10;99.90;;;;;;20827170;28;20038;-78
2022/05/25 04:54:19;;;;;;;5.40;1.17;;;13.20;99.90;;;;;;20828818;28;20033;-79
2022/05/25 05:04:20;;;;;;;4.70;1.30;;;13.30;99.90;;;;;;20853866;28;20516;-77
2022/05/25 05:14:21;;;;;;;1.60;1.13;;;13.40;99.90;;;;;;20741866;28;20037;-76
2022/05/25 05:24:22;;;;;;;3.10;1.20;;;13.40;99.90;;;;;;20698822;28;20041;-77
2022/05/25 05:34:22;;;;;;;3.50;1.47;;;13.50;99.90;;;;;;20678904;28;20041;-77
2022/05/25 05:44:27;;;;;;;4.13;2.27;;;13.70;99.90;;;;;;20695725;28;20101;-78
2022/05/25 05:54:28;;;;;;;3.25;1.40;;;13.80;99.90;;;;;;20676966;28;20121;-77
2022/05/25 06:04:29;;;;;;;5.00;1.93;;;13.90;99.90;;;;;;20658024;28;20467;-77
2022/05/25 06:14:30;;;;;;;3.20;1.50;;;14.10;99.90;;;;;;20688092;28;20034;-77
2022/05/25 06:24:36;;;;;;;4.10;2.20;;;14.40;99.90;;;;;;20755742;28;20292;-77
2022/05/25 06:34:39;;;;;;;7.95;2.72;;;14.40;99.90;;;;;;20753988;28;20070;-77
2022/05/25 06:44:42;;;;;;;3.97;2.42;;;14.00;99.90;;;;;;20736323;28;20057;-77
2022/05/25 06:54:42;;;;;;;3.40;2.90;;;14.00;99.90;;;;;;20752894;28;20049;-77
2022/05/25 07:04:43;;;;;;;10.53;3.93;;;14.30;99.90;;;;;;20734687;28;20488;-77
2022/05/25 07:14:44;;;;;;;7.53;3.53;;;14.90;99.90;;;;;;20750921;28;20029;-77
2022/05/25 07:24:45;;;;;;;4.57;3.30;;;16.20;99.90;;;;;;20752139;28;20034;-77
2022/05/25 07:34:55;;;;;;;5.82;3.33;;;16.90;99.90;;;;;;20753234;28;20029;-76
2022/05/25 07:44:59;;;;;;;7.80;4.43;;;17.90;99.90;;;;;;20762235;28;20034;-78
2022/05/25 07:55:02;;;;;;;7.05;4.80;;;18.10;99.90;;;;;;20748153;28;20156;-77
2022/05/25 08:15:25;;;;;;;3.90;3.03;;;18.20;99.90;;;;;;20748063;28;20058;-77
2022/05/25 08:25:26;;;;;;;6.97;2.60;;;18.90;99.90;;;;;;20829465;22;20391;-76
2022/05/25 08:35:27;;;;;;;5.57;2.63;;;19.30;99.90;;;;;;20826588;28;20034;-75
2022/05/25 08:45:36;;;;;;;4.40;1.95;;;19.60;99.90;;;;;;20840196;28;20187;-76
2022/05/25 08:56:01;;;;;;;4.57;1.60;;;20.00;99.90;;;;;;20837922;28;20045;-75
2022/05/25 09:06:23;;;;;;;6.65;2.15;;;20.50;99.90;;;;;;20838475;28;20033;-76
2022/05/25 09:16:26;;;;;;;1.95;0.80;;;20.50;99.90;;;;;;20837709;28;20029;-76
2022/05/25 09:26:27;;;;;;;2.33;0.98;;;21.30;99.90;;;;;;20836828;28;20045;-76
2022/05/25 09:36:34;;;;;;;2.00;0.67;;;21.10;99.90;;;;;;20834709;28;20172;-76
2022/05/25 09:46:40;;;;;;;1.92;0.77;;;21.30;99.90;;;;;;20834249;28;20033;-76
2022/05/25 09:57:17;;;;;;;5.78;1.80;;;21.10;99.90;;;;;;20834822;28;20037;-76
2022/05/25 10:07:38;;;;;;;1.02;0.40;;;21.60;99.90;;;;;;20835142;28;20033;-76
2022/05/25 10:17:42;;;;;;;4.40;0.50;;;22.30;99.90;;;;;;20839878;28;20087;-76
2022/05/25 10:27:44;;;;;;;1.33;0.73;;;22.10;99.90;;;;;;20832715;28;20048;-76
2022/05/25 10:37:45;;;;;;;0.20;0.17;;;23.70;99.90;;;;;;20830131;28;20060;-76
2022/05/25 10:47:57;;;;;;;1.97;0.30;;;23.20;99.90;;;;;;20831188;28;20034;-76
2022/05/25 10:58:21;;;;;;;1.40;0.40;;;23.10;99.90;;;;;;20828848;28;20084;-76
2022/05/25 11:08:44;;;;;;;1.40;0.40;;;22.80;99.90;;;;;;20800533;28;20049;-76
2022/05/25 11:19:07;;;;;;;3.60;0.63;;;22.80;99.90;;;;;;20828630;28;20454;-75
2022/05/25 11:29:26;;;;;;;0.32;0.22;;;23.40;99.90;;;;;;20828018;28;20033;-75
2022/05/25 11:39:44;;;;;;;2.25;0.60;;;23.40;99.90;;;;;;20826362;28;20037;-75
2022/05/25 11:50:13;;;;;;;2.80;0.55;;;22.80;99.90;;;;;;20825612;28;20488;-75
2022/05/25 12:00:44;;;;;;;1.05;0.45;;;23.60;99.90;;;;;;20829819;28;20029;-75
2022/05/25 12:10:53;;;;;;;1.35;0.50;;;23.10;99.90;;;;;;20833925;28;20033;-75
2022/05/25 12:21:20;;;;;;;3.78;0.30;;;23.80;99.90;;;;;;20825769;28;20446;-74
2022/05/25 12:31:26;;;;;;;1.65;0.47;;;23.50;99.90;;;;;;20825445;28;20101;-75
2022/05/25 12:41:35;;;;;;;1.20;0.40;;;23.10;99.90;;;;;;20825334;28;20053;-76
2022/05/25 12:51:44;;;;;;;1.42;0.40;;;23.20;99.90;;;;;;20823321;28;20033;-75
2022/05/25 13:02:04;;;;;;;3.35;0.40;;;23.10;99.90;;;;;;20824589;28;20025;-75
2022/05/25 13:12:39;;;;;;;3.67;0.40;;;23.10;99.90;;;;;;20823308;28;20030;-75
2022/05/25 13:22:41;;;;;;;5.43;0.65;;;23.00;99.90;;;;;;20825813;28;20119;-75
2022/05/25 13:32:52;;;;;;;4.65;1.40;;;22.60;99.90;;;;;;20837633;28;20045;-75
2022/05/25 13:42:54;;;;;;;2.75;0.70;;;22.60;99.90;;;;;;20836540;28;20041;-76
2022/05/25 13:52:56;;;;;;;1.60;0.32;;;23.30;99.90;;;;;;20829003;28;20031;-74
2022/05/25 14:02:59;;;;;;;0.22;0.20;;;23.00;99.90;;;;;;20822893;28;20395;-76
2022/05/25 14:13:27;;;;;;;2.88;0.40;;;23.50;99.90;;;;;;20846857;28;20037;-75
2022/05/25 14:23:30;;;;;;;2.05;0.55;;;23.40;99.90;;;;;;20858322;23;20045;-74
2022/05/25 14:33:31;;;;;;;3.30;0.40;;;23.70;99.90;;;;;;20798325;28;20045;-74
2022/05/25 14:43:42;;;;;;;1.87;0.30;;;22.80;99.90;;;;;;20811489;28;20025;-75
2022/05/25 14:53:43;;;;;;;1.67;0.50;;;22.60;99.90;;;;;;20810273;28;20416;-74
2022/05/25 15:03:50;;;;;;;;;;;22.50;99.90;;;;;;20799685;28;20124;-74
2022/05/25 15:24:31;;;;;;;1.52;0.63;;;22.30;99.90;;;;;;20873307;28;20041;-74
2022/05/25 15:34:31;;;;;;;0.43;0.37;;;22.70;99.90;;;;;;20874184;28;20041;-75
2022/05/25 15:44:32;;;;;;;7.67;0.70;;;22.70;99.90;;;;;;20887563;28;20029;-75
2022/05/25 15:54:36;;;;;;;2.63;0.40;;;22.60;99.90;;;;;;20807192;28;20124;-74
2022/05/25 16:04:39;;;;;;;7.43;0.40;;;22.70;99.90;;;;;;20807599;28;20033;-74
2022/05/25 16:14:43;;;;;;;3.58;0.75;;;22.10;99.90;;;;;;20806649;28;20072;-74
2022/05/25 16:24:45;;;;;;;0.80;0.35;;;22.00;99.90;;;;;;20805507;28;20095;-74
2022/05/25 16:34:46;;;;;;;0.63;0.40;;;22.20;99.90;;;;;;20809312;28;20497;-73
2022/05/25 16:44:46;;;;;;;1.17;0.50;;;21.50;99.90;;;;;;20817957;28;20032;-74
2022/05/25 16:54:47;;;;;;;1.90;0.30;;;21.70;99.90;;;;;;20836661;28;20439;-73
2022/05/25 17:04:48;;;;;;;1.67;0.43;;;21.70;99.90;;;;;;20818932;28;20037;-74
2022/05/25 17:14:49;;;;;;;0.50;0.23;;;21.60;99.90;;;;;;20818875;28;20033;-74
2022/05/25 17:24:50;;;;;;;4.13;0.73;;;21.40;99.90;;;;;;20818514;28;20120;-73
2022/05/25 17:34:51;;;;;;;0.50;0.40;;;21.20;99.90;;;;;;20818401;28;20096;-74
2022/05/25 17:44:52;;;;;;;0.77;0.50;;;20.90;99.90;;;;;;20827010;28;20025;-73
2022/05/25 17:54:55;;;;;;;1.23;0.35;;;20.90;99.90;;;;;;20847625;28;20042;-73
2022/05/25 18:04:57;;;;;;;3.42;0.52;;;21.20;99.90;;;;;;20815450;28;20034;-73
2022/05/25 18:15:06;;;;;;;2.85;0.30;;;21.20;99.90;;;;;;20813075;28;20056;-73
2022/05/25 18:25:08;;;;;;;1.45;0.50;;;20.90;99.90;;;;;;20817988;28;20037;-73
2022/05/25 18:35:10;;;;;;;6.60;0.28;;;20.50;99.90;;;;;;20813176;28;20116;-73
2022/05/25 18:45:11;;;;;;;2.22;0.43;;;20.10;99.90;;;;;;20824540;28;20032;-73
2022/05/25 18:55:13;;;;;;;4.82;0.40;;;19.40;99.90;;;;;;20839984;28;20096;-73
2022/05/25 19:05:15;;;;;;;2.30;0.40;;;18.90;99.90;;;;;;20792438;28;20905;-74
2022/05/25 19:15:16;;;;;;;1.08;0.40;;;18.50;99.90;;;;;;20809190;28;20087;-74
2022/05/25 19:25:21;;;;;;;1.57;0.30;;;18.00;99.90;;;;;;20807953;28;20034;-74
2022/05/25 19:35:23;;;;;;;0.85;0.30;;;17.50;99.90;;;;;;20789788;28;20056;-74
2022/05/25 19:45:24;;;;;;;1.45;0.60;;;16.90;99.90;;;;;;20819303;28;20039;-74
2022/05/25 19:55:25;;;;;;;1.10;0.70;;;16.30;99.90;;;;;;20834133;28;20037;-73
2022/05/25 20:05:27;;;;;;;2.00;0.60;;;15.60;99.90;;;;;;20878225;28;20544;-73
2022/05/25 20:15:29;;;;;;;2.08;0.60;;;15.60;99.90;;;;;;20807330;28;20486;-73
2022/05/25 20:25:30;;;;;;;1.33;0.60;;;14.90;99.90;;;;;;20684173;23;20081;-77
2022/05/25 20:35:31;;;;;;;4.80;0.53;;;14.50;99.90;;;;;;20656285;28;20030;-77
2022/05/25 20:45:32;;;;;;;3.07;0.43;;;14.70;99.90;;;;;;20694296;28;20036;-77
2022/05/25 20:55:33;;;;;;;2.47;0.87;;;14.70;99.90;;;;;;20686565;28;20377;-77
2022/05/25 21:05:34;;;;;;;4.80;0.53;;;14.70;99.90;;;;;;20687374;28;20035;-78
2022/05/25 21:15:35;;;;;;;2.57;0.67;;;14.40;99.90;;;;;;20687805;28;20030;-78
2022/05/25 21:25:37;;;;;;;3.23;0.80;;;14.30;99.90;;;;;;20686367;28;20097;-75
2022/05/25 21:35:40;;;;;;;1.70;0.90;;;14.00;99.90;;;;;;20688452;28;20109;-78
2022/05/25 21:49:51;;;;;;;4.07;0.70;;;13.80;99.90;;;;;;20686346;28;20053;-77
2022/05/25 21:56:05;;;;;;;3.40;0.70;;;13.60;99.90;;;;;;20678977;28;20035;-77
2022/05/25 22:06:06;;;;;;;1.27;0.60;;;13.60;99.90;;;;;;20683428;28;20085;-78
2022/05/25 22:16:07;;;;;;;5.33;0.90;;;13.40;99.90;;;;;;20679861;28;20069;-76
2022/05/25 22:26:07;;;;;;;2.67;0.90;;;13.20;99.90;;;;;;20644857;28;20030;-78
2022/05/25 22:36:08;;;;;;;1.77;0.70;;;13.30;99.90;;;;;;20647231;28;20027;-77
2022/05/25 22:46:09;;;;;;;5.83;1.07;;;13.10;99.90;;;;;;20688454;28;20045;-78
2022/05/25 22:56:11;;;;;;;3.70;0.70;;;13.20;99.90;;;;;;20687563;28;20371;-78
2022/05/25 23:06:13;;;;;;;0.70;0.50;;;13.00;99.90;;;;;;20675294;28;20042;-78
2022/05/25 23:16:14;;;;;;;2.63;0.70;;;13.10;99.90;;;;;;20698324;28;20378;-76
2022/05/25 23:26:15;;;;;;;1.77;0.80;;;13.10;99.90;;;;;;20685187;28;20038;-78
2022/05/25 23:36:19;;;;;;;0.70;0.70;;;12.90;99.90;;;;;;20685907;28;20531;-77
2022/05/25 23:46:24;;;;;;;1.15;0.80;;;12.70;99.90;;;;;;20678743;28;20437;-77
2022/05/25 23:56:26;;;;;;;5.10;1.05;;;12.40;99.90;;;;;;20673580;28;20073;-77
